createdAt,value
2022-09-20T00:00:25.249Z,9.51
2022-09-20T00:05:27.988Z,9.49
2022-09-20T00:10:34.205Z,9.34
2022-09-20T00:15:42.410Z,9.21
2022-09-20T00:20:49.171Z,9.13
2022-09-20T00:25:59.393Z,9.18
2022-09-20T00:31:03.789Z,9.12
2022-09-20T00:36:06.837Z,9.11
2022-09-20T00:41:10.089Z,9.12
2022-09-20T00:46:23.915Z,9.07
2022-09-20T00:51:31.329Z,9.03
2022-09-20T00:56:37.248Z,9.11
2022-09-20T01:01:42.361Z,9.13
2022-09-20T01:06:47.239Z,9.16
2022-09-20T01:11:53.131Z,9.16
2022-09-20T01:17:03.028Z,9.11
2022-09-20T01:22:14.307Z,9.04
2022-09-20T01:27:23.408Z,8.98
2022-09-20T01:32:40.765Z,8.95
2022-09-20T01:37:57.600Z,8.91
2022-09-20T01:43:13.510Z,8.89
2022-09-20T01:48:26.491Z,8.90
2022-09-20T01:54:10.354Z,8.84
2022-09-20T01:59:46.375Z,8.84
2022-09-20T02:05:14.827Z,8.80
2022-09-20T02:11:14.792Z,8.87
2022-09-20T02:16:25.573Z,8.87
2022-09-20T02:21:38.704Z,8.77
2022-09-20T02:26:51.032Z,8.74
2022-09-20T02:32:19.217Z,8.81
2022-09-20T02:37:46.394Z,8.85
2022-09-20T02:42:59.120Z,8.84
2022-09-20T02:48:04.997Z,8.75
2022-09-20T02:53:39.423Z,8.73
2022-09-20T02:58:53.305Z,8.68
2022-09-20T03:04:09.061Z,8.66
2022-09-20T03:09:20.483Z,8.67
2022-09-20T03:14:29.231Z,8.59
2022-09-20T03:19:46.881Z,8.58
2022-09-20T03:25:07.381Z,8.52
2022-09-20T03:30:28.723Z,8.59
2022-09-20T03:35:46.674Z,8.56
2022-09-20T03:41:30.157Z,8.52
2022-09-20T03:46:42.417Z,8.50
2022-09-20T03:51:57.094Z,8.38
2022-09-20T03:57:35.501Z,8.33
2022-09-20T04:02:57.533Z,8.35
2022-09-20T04:08:12.039Z,8.41
2022-09-20T04:13:31.917Z,8.45
2022-09-20T04:18:41.016Z,8.44
2022-09-20T04:23:51.758Z,8.34
2022-09-20T04:28:59.454Z,8.31
2022-09-20T04:34:07.972Z,8.26
2022-09-20T04:39:20.345Z,8.30
2022-09-20T04:45:02.699Z,8.23
2022-09-20T04:50:44.277Z,8.18
2022-09-20T04:55:51.698Z,8.15
2022-09-20T05:01:31.641Z,8.22
2022-09-20T05:07:03.153Z,8.19
2022-09-20T05:12:28.956Z,8.25
2022-09-20T05:17:43.725Z,8.20
2022-09-20T05:23:23.753Z,8.27
2022-09-20T05:28:32.522Z,8.34
2022-09-20T05:33:44.898Z,8.39
2022-09-20T05:38:55.359Z,8.59
2022-09-20T05:44:08.949Z,8.70
2022-09-20T05:49:21.285Z,8.88
2022-09-20T05:54:48.530Z,9.24
2022-09-20T06:00:02.598Z,9.59
2022-09-20T06:05:17.792Z,9.84
2022-09-20T06:10:39.677Z,9.97
2022-09-20T06:15:49.269Z,9.93
2022-09-20T06:21:01.119Z,10.32
2022-09-20T06:26:11.583Z,11.18
2022-09-20T06:31:16.996Z,11.63
2022-09-20T06:36:44.239Z,12.18
2022-09-20T06:41:49.585Z,15.00
2022-09-20T06:46:54.408Z,16.68
2022-09-20T06:51:57.503Z,16.59
2022-09-20T06:57:06.048Z,19.45
2022-09-20T07:02:09.199Z,21.51
2022-09-20T07:07:17.812Z,21.69
2022-09-20T07:12:21.925Z,22.15
2022-09-20T07:17:25.361Z,21.68
2022-09-20T07:22:28.369Z,21.10
2022-09-20T07:27:32.494Z,21.85
2022-09-20T07:32:35.349Z,20.87
2022-09-20T07:37:41.207Z,20.42
2022-09-20T07:42:46.069Z,17.84
2022-09-20T07:47:48.954Z,15.53
2022-09-20T07:52:51.829Z,15.50
2022-09-20T07:57:56.189Z,15.09
2022-09-20T08:03:00.586Z,14.66
2022-09-20T08:08:03.739Z,14.27
2022-09-20T08:18:31.603Z,14.55
2022-09-20T08:23:36.005Z,14.48
2022-09-20T08:28:41.689Z,14.60
2022-09-20T08:33:45.096Z,14.57
2022-09-20T08:44:18.666Z,14.56
2022-09-20T08:49:27.383Z,14.68
2022-09-20T08:54:33.248Z,15.10
2022-09-20T08:59:37.696Z,15.29
2022-09-20T09:04:40.834Z,15.34
2022-09-20T09:09:45.127Z,15.40
2022-09-20T09:14:52.140Z,15.40
2022-09-20T09:19:56.618Z,15.65
2022-09-20T09:25:24.195Z,15.34
2022-09-20T09:30:31.238Z,16.07
2022-09-20T09:35:37.313Z,16.16
2022-09-20T09:40:51.320Z,15.78
2022-09-20T09:45:56.758Z,15.58
2022-09-20T09:51:11.238Z,16.04
2022-09-20T09:56:33.340Z,16.63
2022-09-20T10:01:42.715Z,16.43
2022-09-20T10:06:55.100Z,15.84
2022-09-20T10:12:11.880Z,16.25
2022-09-20T10:17:31.280Z,16.03
2022-09-20T10:23:06.782Z,15.35
2022-09-20T10:28:21.654Z,15.08
2022-09-20T10:33:37.455Z,15.01
2022-09-20T10:38:49.531Z,14.96
2022-09-20T10:44:10.123Z,15.59
2022-09-20T10:49:28.093Z,16.57
2022-09-20T10:54:45.002Z,16.98
2022-09-20T10:59:53.825Z,16.81
2022-09-20T11:05:21.518Z,17.20
2022-09-20T11:10:29.456Z,16.66
2022-09-20T11:15:36.635Z,16.19
2022-09-20T11:20:48.228Z,15.93
2022-09-20T11:25:54.557Z,15.85
2022-09-20T11:31:03.765Z,16.01
2022-09-20T11:36:15.222Z,15.82
2022-09-20T11:41:22.178Z,16.20
2022-09-20T11:46:28.043Z,16.07
2022-09-20T11:52:15.413Z,16.44
2022-09-20T11:57:19.525Z,16.42
2022-09-20T12:02:28.353Z,16.58
2022-09-20T12:07:36.263Z,16.83
2022-09-20T12:12:46.992Z,17.30
2022-09-20T12:18:16.522Z,16.72
2022-09-20T12:23:45.080Z,16.99
2022-09-20T12:28:50.881Z,16.72
2022-09-20T12:33:58.402Z,16.54
2022-09-20T12:39:07.857Z,16.08
2022-09-20T12:44:26.757Z,16.32
2022-09-20T12:50:01.390Z,16.61
2022-09-20T12:55:10.272Z,16.55
2022-09-20T13:00:37.912Z,15.96
2022-09-20T13:05:42.830Z,15.61
2022-09-20T13:10:51.026Z,15.46
2022-09-20T13:15:56.506Z,15.51
2022-09-20T13:21:03.455Z,15.69
2022-09-20T13:26:10.445Z,15.89
2022-09-20T13:31:29.655Z,16.49
2022-09-20T13:36:32.644Z,16.85
2022-09-20T13:41:36.339Z,17.42
2022-09-20T13:46:46.043Z,17.57
2022-09-20T13:51:49.722Z,17.20
2022-09-20T13:56:53.476Z,16.62
2022-09-20T14:01:58.737Z,16.33
2022-09-20T14:07:02.941Z,16.06
2022-09-20T14:12:06.804Z,15.99
2022-09-20T14:17:16.593Z,15.92
2022-09-20T14:22:23.746Z,15.85
2022-09-20T14:27:27.505Z,15.88
2022-09-20T14:32:48.048Z,15.91
2022-09-20T14:37:53.066Z,15.93
2022-09-20T14:42:58.608Z,15.97
2022-09-20T14:48:10.463Z,15.92
2022-09-20T14:53:26.567Z,15.88
2022-09-20T14:58:29.458Z,15.80
2022-09-20T15:03:35.338Z,15.65
2022-09-20T15:08:40.791Z,15.55
2022-09-20T15:13:47.145Z,15.40
2022-09-20T15:18:51.255Z,15.27
2022-09-20T15:23:54.122Z,15.18
2022-09-20T15:28:57.014Z,15.23
2022-09-20T15:34:01.159Z,15.22
2022-09-20T15:39:07.019Z,15.25
2022-09-20T15:44:10.031Z,15.15
2022-09-20T15:49:17.655Z,15.07
2022-09-20T15:54:21.180Z,15.17
2022-09-20T15:59:24.256Z,15.44
2022-09-20T16:04:28.440Z,15.59
2022-09-20T16:09:31.741Z,15.57
2022-09-20T16:14:34.652Z,15.40
2022-09-20T16:19:40.220Z,15.14
2022-09-20T16:24:43.497Z,15.05
2022-09-20T16:29:46.376Z,15.08
2022-09-20T16:34:51.050Z,15.07
2022-09-20T16:39:53.811Z,14.87
2022-09-20T16:44:57.062Z,14.63
2022-09-20T16:50:02.374Z,14.56
2022-09-20T16:55:06.240Z,14.41
2022-09-20T17:00:11.585Z,14.25
2022-09-20T17:05:15.880Z,14.25
2022-09-20T17:10:18.718Z,13.97
2022-09-20T17:15:21.446Z,13.80
2022-09-20T17:20:27.147Z,13.70
2022-09-20T17:25:30.380Z,13.69
2022-09-20T17:30:33.198Z,13.63
2022-09-20T17:35:37.318Z,13.59
2022-09-20T17:40:40.066Z,13.44
2022-09-20T17:45:42.864Z,13.36
2022-09-20T17:50:56.119Z,13.16
2022-09-20T17:56:00.261Z,13.07
2022-09-20T18:01:04.598Z,12.94
2022-09-20T18:06:17.088Z,12.87
2022-09-20T18:11:22.781Z,12.81
2022-09-20T18:16:25.859Z,12.71
2022-09-20T18:21:32.188Z,12.64
2022-09-20T18:26:35.992Z,12.71
2022-09-20T18:31:42.075Z,12.67
2022-09-20T18:36:48.386Z,12.63
2022-09-20T18:41:53.239Z,12.59
2022-09-20T18:46:56.236Z,12.41
2022-09-20T18:52:00.767Z,12.33
2022-09-20T18:57:04.177Z,12.20
2022-09-20T19:02:24.718Z,12.14
2022-09-20T19:07:37.543Z,12.00
2022-09-20T19:12:46.889Z,11.90
2022-09-20T19:18:02.019Z,11.78
2022-09-20T19:23:25.259Z,11.74
2022-09-20T19:28:29.381Z,11.62
2022-09-20T19:33:33.077Z,11.59
2022-09-20T19:38:44.590Z,11.48
2022-09-20T19:44:02.146Z,11.47
2022-09-20T19:49:14.336Z,11.35
2022-09-20T19:54:19.602Z,11.27
2022-09-20T19:59:26.466Z,11.20
2022-09-20T20:04:30.007Z,11.18
2022-09-20T20:09:42.999Z,11.28
2022-09-20T20:14:55.608Z,11.17
2022-09-20T20:20:12.021Z,11.12
2022-09-20T20:25:26.239Z,11.05
2022-09-20T20:30:29.160Z,10.99
2022-09-20T20:35:32.779Z,10.98
2022-09-20T20:40:37.025Z,10.89
2022-09-20T20:45:40.049Z,10.95
2022-09-20T20:50:43.110Z,10.99
2022-09-20T20:55:47.135Z,10.94
2022-09-20T21:00:49.927Z,10.95
2022-09-20T21:05:54.818Z,10.92
2022-09-20T21:11:02.979Z,10.89
2022-09-20T21:16:11.157Z,10.89
2022-09-20T21:21:17.052Z,10.74
2022-09-20T21:26:22.499Z,10.60
2022-09-20T21:31:26.403Z,10.58
2022-09-20T21:36:30.844Z,10.52
2022-09-20T21:41:36.858Z,10.45
2022-09-20T21:46:41.033Z,10.37
2022-09-20T21:51:45.094Z,10.34
2022-09-20T21:56:50.424Z,10.35
2022-09-20T22:01:54.148Z,10.22
2022-09-20T22:06:57.022Z,10.20
2022-09-20T22:12:01.415Z,10.17
2022-09-20T22:17:04.366Z,10.06
2022-09-20T22:22:07.106Z,10.01
2022-09-20T22:27:11.193Z,10.02
2022-09-20T22:32:13.894Z,9.93
2022-09-20T22:37:17.437Z,9.85
2022-09-20T22:42:21.548Z,9.73
2022-09-20T22:47:24.377Z,9.64
2022-09-20T22:52:27.173Z,9.58
2022-09-20T22:57:31.291Z,9.51
2022-09-20T23:02:34.140Z,9.54
2022-09-20T23:07:37.337Z,9.55
2022-09-20T23:12:41.434Z,9.50
2022-09-20T23:17:44.245Z,9.46
2022-09-20T23:22:46.970Z,9.49
2022-09-20T23:27:51.161Z,9.47
2022-09-20T23:32:54.460Z,9.45
2022-09-20T23:37:57.304Z,9.41
2022-09-20T23:43:01.401Z,9.27
2022-09-20T23:48:04.672Z,9.21
2022-09-20T23:53:07.421Z,9.17
2022-09-20T23:58:11.585Z,9.10
